createdAt,value
2022-09-01T00:04:39.864Z,22.62
2022-09-01T00:10:10.497Z,22.49
2022-09-01T00:15:40.860Z,22.41
2022-09-01T00:21:08.265Z,22.35
2022-09-01T00:26:37.471Z,22.29
2022-09-01T00:32:02.974Z,22.29
2022-09-01T00:37:29.373Z,22.22
2022-09-01T00:42:56.348Z,22.21
2022-09-01T00:48:27.564Z,22.15
2022-09-01T00:53:58.189Z,22.11
2022-09-01T00:59:28.315Z,22.05
2022-09-01T01:04:52.853Z,22.01
2022-09-01T01:10:23.934Z,22.02
2022-09-01T01:15:53.365Z,22.06
2022-09-01T01:21:42.864Z,22.07
2022-09-01T01:27:13.520Z,22.05
2022-09-01T01:32:37.103Z,21.96
2022-09-01T01:38:03.131Z,21.93
2022-09-01T01:43:33.854Z,21.88
2022-09-01T01:49:03.409Z,21.85
2022-09-01T01:54:32.800Z,21.84
2022-09-01T01:59:58.994Z,21.81
2022-09-01T02:05:25.610Z,21.80
2022-09-01T02:10:55.250Z,21.78
2022-09-01T02:16:25.470Z,21.71
2022-09-01T02:21:56.268Z,21.63
2022-09-01T02:27:29.788Z,21.57
2022-09-01T02:33:00.168Z,21.45
2022-09-01T02:38:33.082Z,21.35
2022-09-01T02:44:04.179Z,21.34
2022-09-01T02:49:36.060Z,21.30
2022-09-01T02:55:05.710Z,21.29
2022-09-01T03:00:37.579Z,21.27
2022-09-01T03:06:09.333Z,21.24
2022-09-01T03:11:39.521Z,21.21
2022-09-01T03:17:06.821Z,21.18
2022-09-01T03:22:33.987Z,21.15
2022-09-01T03:28:03.414Z,21.12
2022-09-01T03:33:32.540Z,21.15
2022-09-01T03:38:58.033Z,21.19
2022-09-01T03:44:28.295Z,21.21
2022-09-01T03:49:57.025Z,21.29
2022-09-01T03:55:28.859Z,21.32
2022-09-01T04:01:01.024Z,21.38
2022-09-01T04:06:27.295Z,21.42
2022-09-01T04:11:55.805Z,21.46
2022-09-01T04:17:41.382Z,21.55
2022-09-01T04:23:11.220Z,21.56
2022-09-01T04:28:42.170Z,21.72
2022-09-01T04:34:14.357Z,21.87
2022-09-01T04:39:52.516Z,21.93
2022-09-01T04:45:25.305Z,21.95
2022-09-01T04:50:49.546Z,22.08
2022-09-01T04:56:30.955Z,22.19
2022-09-01T05:02:09.651Z,22.25
2022-09-01T05:07:38.084Z,22.45
2022-09-01T05:13:01.453Z,22.52
2022-09-01T05:18:30.117Z,22.62
2022-09-01T05:23:54.541Z,22.71
2022-09-01T05:29:19.297Z,22.73
2022-09-01T05:34:46.389Z,22.85
2022-09-01T05:40:16.662Z,22.89
2022-09-01T05:46:05.738Z,23.07
2022-09-01T05:51:45.827Z,23.20
2022-09-01T05:57:33.654Z,23.43
2022-09-01T06:03:01.304Z,23.78
2022-09-01T06:08:29.091Z,23.92
2022-09-01T06:13:59.073Z,24.25
2022-09-01T06:19:21.742Z,24.43
2022-09-01T06:24:57.989Z,24.57
2022-09-01T06:30:27.479Z,25.25
2022-09-01T06:36:04.632Z,25.88
2022-09-01T06:41:31.591Z,26.72
2022-09-01T06:46:57.271Z,27.80
2022-09-01T06:52:23.708Z,28.91
2022-09-01T06:58:08.282Z,29.08
2022-09-01T07:03:34.157Z,29.60
2022-09-01T07:09:47.722Z,30.10
2022-09-01T07:21:35.516Z,31.72
2022-09-01T07:26:52.238Z,32.88
2022-09-01T07:43:53.030Z,33.97
2022-09-01T07:55:29.014Z,34.84
2022-09-01T08:01:01.733Z,35.35
2022-09-01T08:06:41.006Z,35.81
2022-09-01T08:12:10.775Z,35.57
2022-09-01T08:17:52.132Z,35.97
2022-09-01T08:23:20.567Z,36.23
2022-09-01T08:28:54.324Z,36.43
2022-09-01T08:34:25.253Z,36.36
2022-09-01T08:39:55.969Z,36.19
2022-09-01T08:45:24.444Z,36.34
2022-09-01T08:50:56.485Z,36.31
2022-09-01T08:56:37.809Z,35.85
2022-09-01T09:02:17.740Z,35.80
2022-09-01T09:08:06.569Z,36.41
2022-09-01T09:13:44.346Z,36.72
2022-09-01T09:19:11.087Z,35.25
2022-09-01T09:24:50.137Z,34.96
2022-09-01T09:30:21.942Z,34.86
2022-09-01T09:35:50.616Z,33.91
2022-09-01T09:41:18.852Z,33.87
2022-09-01T09:46:50.454Z,33.88
2022-09-01T09:52:19.825Z,33.77
2022-09-01T09:57:46.349Z,34.31
2022-09-01T10:03:14.842Z,34.33
2022-09-01T10:08:45.994Z,34.15
2022-09-01T10:14:35.311Z,34.17
2022-09-01T10:20:07.785Z,34.21
2022-09-01T10:25:41.535Z,33.53
2022-09-01T10:31:10.939Z,32.17
2022-09-01T10:36:37.842Z,31.85
2022-09-01T10:42:19.407Z,31.48
2022-09-01T10:47:49.053Z,30.47
2022-09-01T10:53:34.455Z,29.75
2022-09-01T11:05:14.937Z,29.47
2022-09-01T11:10:52.987Z,29.27
2022-09-01T11:16:47.745Z,29.58
2022-09-01T11:22:20.910Z,29.83
2022-09-01T11:28:00.621Z,29.69
2022-09-01T11:33:42.232Z,29.11
2022-09-01T11:39:08.726Z,28.91
2022-09-01T11:44:42.581Z,28.87
2022-09-01T11:50:18.923Z,28.85
2022-09-01T11:55:44.021Z,28.90
2022-09-01T12:01:16.075Z,29.04
2022-09-01T12:06:52.684Z,28.81
2022-09-01T12:12:28.632Z,29.01
2022-09-01T12:17:54.349Z,28.95
2022-09-01T12:23:26.900Z,28.88
2022-09-01T12:28:56.284Z,29.53
2022-09-01T12:34:30.214Z,29.12
2022-09-01T12:40:00.133Z,29.14
2022-09-01T12:45:38.857Z,29.06
2022-09-01T12:51:19.183Z,29.10
2022-09-01T12:56:49.306Z,28.94
2022-09-01T13:02:34.727Z,28.80
2022-09-01T13:08:08.482Z,28.43
2022-09-01T13:13:31.639Z,28.47
2022-09-01T13:19:11.158Z,28.72
2022-09-01T13:24:41.078Z,28.72
2022-09-01T13:30:09.879Z,28.55
2022-09-01T13:35:37.249Z,28.57
2022-09-01T13:41:03.321Z,28.43
2022-09-01T13:46:30.105Z,27.99
2022-09-01T13:51:54.226Z,28.03
2022-09-01T13:57:20.055Z,27.86
2022-09-01T14:02:49.643Z,27.71
2022-09-01T14:08:20.208Z,27.61
2022-09-01T14:13:49.958Z,27.45
2022-09-01T14:19:19.335Z,27.29
2022-09-01T14:24:49.413Z,27.08
2022-09-01T14:30:20.422Z,26.94
2022-09-01T14:35:45.701Z,26.81
2022-09-01T14:41:14.800Z,26.58
2022-09-01T14:46:45.543Z,26.32
2022-09-01T14:52:11.063Z,26.21
2022-09-01T14:57:37.440Z,25.91
2022-09-01T15:03:02.798Z,25.94
2022-09-01T15:08:28.288Z,25.92
2022-09-01T15:13:56.086Z,25.91
2022-09-01T15:19:22.150Z,25.84
2022-09-01T15:24:50.921Z,25.68
2022-09-01T15:30:17.165Z,25.55
2022-09-01T15:35:43.854Z,25.42
2022-09-01T15:41:07.053Z,25.34
2022-09-01T15:46:36.384Z,25.25
2022-09-01T15:52:01.733Z,25.06
2022-09-01T15:57:30.974Z,24.92
2022-09-01T16:02:56.588Z,24.89
2022-09-01T16:08:27.694Z,24.76
2022-09-01T16:13:57.511Z,24.55
2022-09-01T16:19:27.521Z,24.34
2022-09-01T16:25:02.369Z,24.18
2022-09-01T16:30:30.927Z,24.10
2022-09-01T16:36:02.673Z,24.01
2022-09-01T16:41:39.696Z,24.02
2022-09-01T16:47:17.709Z,24.03
2022-09-01T16:52:55.455Z,23.88
2022-09-01T16:58:29.222Z,23.77
2022-09-01T17:03:57.827Z,23.60
2022-09-01T17:09:24.195Z,23.38
2022-09-01T17:14:57.924Z,23.22
2022-09-01T17:20:24.688Z,23.12
2022-09-01T17:25:56.253Z,23.08
2022-09-01T17:31:25.274Z,23.04
2022-09-01T17:36:58.265Z,23.03
2022-09-01T17:42:27.457Z,23.02
2022-09-01T17:48:04.143Z,22.96
2022-09-01T17:53:34.484Z,22.91
2022-09-01T17:59:07.869Z,22.91
2022-09-01T18:04:40.303Z,22.90
2022-09-01T18:10:08.963Z,22.89
2022-09-01T18:15:42.698Z,22.75
2022-09-01T18:21:16.074Z,22.69
2022-09-01T18:26:45.927Z,22.60
2022-09-01T18:32:21.641Z,22.50
2022-09-01T18:43:24.778Z,22.44
2022-09-01T18:48:56.437Z,22.36
2022-09-01T18:54:22.441Z,22.25
2022-09-01T19:00:18.126Z,22.21
2022-09-01T19:06:02.047Z,22.20
2022-09-01T19:11:32.904Z,22.00
2022-09-01T19:17:21.072Z,22.01
2022-09-01T19:22:48.656Z,21.87
2022-09-01T19:28:21.289Z,21.84
2022-09-01T19:33:52.070Z,21.73
2022-09-01T19:39:25.198Z,21.63
2022-09-01T19:44:52.057Z,21.50
2022-09-01T19:50:20.213Z,21.41
2022-09-01T19:55:47.393Z,21.39
2022-09-01T20:01:12.830Z,21.36
2022-09-01T20:06:37.098Z,21.24
2022-09-01T20:12:14.583Z,21.07
2022-09-01T20:17:41.957Z,20.95
2022-09-01T20:23:11.943Z,20.83
2022-09-01T20:28:46.557Z,20.76
2022-09-01T20:34:19.895Z,20.60
2022-09-01T20:45:29.398Z,20.32
2022-09-01T20:50:55.444Z,20.20
2022-09-01T20:56:28.415Z,20.13
2022-09-01T21:01:59.281Z,20.00
2022-09-01T21:07:30.653Z,19.87
2022-09-01T21:12:59.109Z,19.76
2022-09-01T21:18:36.929Z,19.65
2022-09-01T21:24:00.071Z,19.59
2022-09-01T21:29:31.245Z,19.43
2022-09-01T21:34:56.414Z,19.33
2022-09-01T21:40:25.838Z,19.27
2022-09-01T21:45:54.540Z,19.21
2022-09-01T21:51:24.198Z,19.14
2022-09-01T21:56:47.880Z,19.02
2022-09-01T22:02:12.486Z,18.92
2022-09-01T22:07:40.295Z,18.84
2022-09-01T22:13:05.538Z,18.72
2022-09-01T22:18:34.578Z,18.69
2022-09-01T22:23:59.337Z,18.58
2022-09-01T22:29:22.745Z,18.54
2022-09-01T22:34:46.276Z,18.51
2022-09-01T22:40:12.064Z,18.45
2022-09-01T22:45:35.494Z,18.40
2022-09-01T22:51:01.950Z,18.39
2022-09-01T22:56:36.707Z,18.35
2022-09-01T23:02:01.270Z,18.33
2022-09-01T23:07:25.884Z,18.29
2022-09-01T23:12:51.493Z,18.27
2022-09-01T23:18:20.512Z,18.23
2022-09-01T23:23:58.332Z,18.13
2022-09-01T23:29:25.321Z,18.04
2022-09-01T23:34:55.311Z,18.01
2022-09-01T23:40:24.888Z,17.96
2022-09-01T23:45:55.855Z,17.94
2022-09-01T23:51:25.039Z,17.90
2022-09-01T23:56:53.271Z,17.78
